sensor_id;sensor_type;location;lat;lon;timestamp;P1;durP1;ratioP1;P2;durP2;ratioP2
37151;SDS011;23046;50.112;8.952;2023-12-04T00:00:00;9.73;;;5.57;;
37151;SDS011;23046;50.112;8.952;2023-12-04T00:00:10;9.67;;;5.53;;
37151;SDS011;23046;50.112;8.952;2023-12-04T00:00:24;10.23;;;5.45;;
37151;SDS011;23046;50.112;8.952;2023-12-04T00:00:34;10.17;;;5.30;;
37151;SDS011;23046;50.112;8.952;2023-12-04T00:00:44;10.10;;;5.23;;
37151;SDS011;23046;50.112;8.952;2023-12-04T00:00:54;10.50;;;5.20;;
37151;SDS011;23046;50.112;8.952;2023-12-04T00:01:05;10.00;;;5.20;;
37151;SDS011;23046;50.112;8.952;2023-12-04T00:01:15;9.73;;;5.20;;
37151;SDS011;23046;50.112;8.952;2023-12-04T00:01:26;9.07;;;5.20;;
37151;SDS011;23046;50.112;8.952;2023-12-04T00:01:42;9.48;;;5.28;;
37151;SDS011;23046;50.112;8.952;2023-12-04T00:01:52;9.60;;;5.45;;
37151;SDS011;23046;50.112;8.952;2023-12-04T00:02:02;9.93;;;5.63;;
37151;SDS011;23046;50.112;8.952;2023-12-04T00:02:13;10.82;;;5.78;;
37151;SDS011;23046;50.112;8.952;2023-12-04T00:02:23;11.37;;;5.87;;
37151;SDS011;23046;50.112;8.952;2023-12-04T00:02:33;11.07;;;5.80;;
37151;SDS011;23046;50.112;8.952;2023-12-04T00:02:43;9.63;;;5.47;;
37151;SDS011;23046;50.112;8.952;2023-12-04T00:02:54;9.63;;;5.53;;
37151;SDS011;23046;50.112;8.952;2023-12-04T00:03:04;9.98;;;5.60;;
37151;SDS011;23046;50.112;8.952;2023-12-04T00:03:14;10.73;;;5.53;;
37151;SDS011;23046;50.112;8.952;2023-12-04T00:03:24;10.30;;;5.40;;
37151;SDS011;23046;50.112;8.952;2023-12-04T00:03:34;10.00;;;5.33;;
37151;SDS011;23046;50.112;8.952;2023-12-04T00:03:45;10.40;;;5.63;;
37151;SDS011;23046;50.112;8.952;2023-12-04T00:03:55;11.00;;;5.88;;
37151;SDS011;23046;50.112;8.952;2023-12-04T00:04:05;10.50;;;6.00;;
37151;SDS011;23046;50.112;8.952;2023-12-04T00:04:15;10.07;;;6.03;;
37151;SDS011;23046;50.112;8.952;2023-12-04T00:04:25;9.87;;;5.87;;
37151;SDS011;23046;50.112;8.952;2023-12-04T00:04:36;9.17;;;5.50;;
37151;SDS011;23046;50.112;8.952;2023-12-04T00:04:46;8.30;;;5.40;;
37151;SDS011;23046;50.112;8.952;2023-12-04T00:04:56;9.65;;;5.65;;
37151;SDS011;23046;50.112;8.952;2023-12-04T00:05:06;10.27;;;5.73;;
37151;SDS011;23046;50.112;8.952;2023-12-04T00:05:17;11.20;;;5.80;;
37151;SDS011;23046;50.112;8.952;2023-12-04T00:05:27;10.95;;;5.50;;
37151;SDS011;23046;50.112;8.952;2023-12-04T00:05:37;11.17;;;5.50;;
37151;SDS011;23046;50.112;8.952;2023-12-04T00:05:48;11.63;;;5.60;;
37151;SDS011;23046;50.112;8.952;2023-12-04T00:05:58;10.03;;;5.67;;
37151;SDS011;23046;50.112;8.952;2023-12-04T00:06:10;11.00;;;5.70;;
37151;SDS011;23046;50.112;8.952;2023-12-04T00:06:20;10.75;;;5.82;;
37151;SDS011;23046;50.112;8.952;2023-12-04T00:06:30;10.80;;;5.80;;
37151;SDS011;23046;50.112;8.952;2023-12-04T00:06:41;10.53;;;5.73;;
37151;SDS011;23046;50.112;8.952;2023-12-04T00:06:51;10.30;;;5.38;;
37151;SDS011;23046;50.112;8.952;2023-12-04T00:07:02;10.37;;;5.37;;
37151;SDS011;23046;50.112;8.952;2023-12-04T00:07:12;12.53;;;5.73;;
37151;SDS011;23046;50.112;8.952;2023-12-04T00:07:22;11.65;;;5.68;;
37151;SDS011;23046;50.112;8.952;2023-12-04T00:07:32;12.33;;;5.53;;
37151;SDS011;23046;50.112;8.952;2023-12-04T00:07:42;10.23;;;5.40;;
37151;SDS011;23046;50.112;8.952;2023-12-04T00:07:52;10.93;;;5.47;;
37151;SDS011;23046;50.112;8.952;2023-12-04T00:08:03;10.43;;;5.50;;
37151;SDS011;23046;50.112;8.952;2023-12-04T00:08:13;10.93;;;5.55;;
37151;SDS011;23046;50.112;8.952;2023-12-04T00:08:23;11.23;;;5.90;;
37151;SDS011;23046;50.112;8.952;2023-12-04T00:08:33;11.00;;;6.10;;
37151;SDS011;23046;50.112;8.952;2023-12-04T00:08:44;10.50;;;6.03;;
37151;SDS011;23046;50.112;8.952;2023-12-04T00:08:54;9.48;;;5.60;;
37151;SDS011;23046;50.112;8.952;2023-12-04T00:09:04;8.93;;;5.30;;
37151;SDS011;23046;50.112;8.952;2023-12-04T00:09:14;8.93;;;5.33;;
37151;SDS011;23046;50.112;8.952;2023-12-04T00:09:25;10.40;;;5.37;;
37151;SDS011;23046;50.112;8.952;2023-12-04T00:09:35;10.17;;;5.50;;
37151;SDS011;23046;50.112;8.952;2023-12-04T00:09:45;11.00;;;5.68;;
37151;SDS011;23046;50.112;8.952;2023-12-04T00:09:55;9.83;;;5.53;;
37151;SDS011;23046;50.112;8.952;2023-12-04T00:10:06;9.70;;;5.30;;
37151;SDS011;23046;50.112;8.952;2023-12-04T00:10:16;9.73;;;5.20;;
37151;SDS011;23046;50.112;8.952;2023-12-04T00:10:26;9.67;;;5.27;;
37151;SDS011;23046;50.112;8.952;2023-12-04T00:10:37;10.07;;;5.43;;
37151;SDS011;23046;50.112;8.952;2023-12-04T00:10:47;9.37;;;5.40;;
37151;SDS011;23046;50.112;8.952;2023-12-04T00:10:57;10.17;;;5.67;;
37151;SDS011;23046;50.112;8.952;2023-12-04T00:11:07;11.18;;;5.57;;
37151;SDS011;23046;50.112;8.952;2023-12-04T00:11:17;10.70;;;5.37;;
37151;SDS011;23046;50.112;8.952;2023-12-04T00:11:28;10.70;;;5.47;;
37151;SDS011;23046;50.112;8.952;2023-12-04T00:11:38;10.50;;;5.53;;
37151;SDS011;23046;50.112;8.952;2023-12-04T00:11:48;10.70;;;5.68;;
37151;SDS011;23046;50.112;8.952;2023-12-04T00:11:58;10.47;;;5.47;;
37151;SDS011;23046;50.112;8.952;2023-12-04T00:12:08;10.57;;;5.67;;
37151;SDS011;23046;50.112;8.952;2023-12-04T00:12:19;11.07;;;5.93;;
37151;SDS011;23046;50.112;8.952;2023-12-04T00:12:30;11.07;;;5.97;;
37151;SDS011;23046;50.112;8.952;2023-12-04T00:12:40;10.77;;;5.73;;
37151;SDS011;23046;50.112;8.952;2023-12-04T00:12:51;10.43;;;5.50;;
37151;SDS011;23046;50.112;8.952;2023-12-04T00:13:01;10.15;;;5.53;;
37151;SDS011;23046;50.112;8.952;2023-12-04T00:13:11;9.63;;;5.43;;
37151;SDS011;23046;50.112;8.952;2023-12-04T00:13:21;9.52;;;5.50;;
37151;SDS011;23046;50.112;8.952;2023-12-04T00:13:31;9.53;;;5.37;;
37151;SDS011;23046;50.112;8.952;2023-12-04T00:13:42;10.80;;;5.67;;
37151;SDS011;23046;50.112;8.952;2023-12-04T00:13:52;10.60;;;5.67;;
37151;SDS011;23046;50.112;8.952;2023-12-04T00:14:02;10.10;;;5.57;;
37151;SDS011;23046;50.112;8.952;2023-12-04T00:14:13;9.27;;;5.50;;
37151;SDS011;23046;50.112;8.952;2023-12-04T00:14:23;10.13;;;5.33;;
37151;SDS011;23046;50.112;8.952;2023-12-04T00:14:33;10.43;;;5.33;;
37151;SDS011;23046;50.112;8.952;2023-12-04T00:14:43;10.15;;;5.20;;
37151;SDS011;23046;50.112;8.952;2023-12-04T00:14:53;9.80;;;5.30;;
37151;SDS011;23046;50.112;8.952;2023-12-04T00:15:04;9.70;;;5.30;;
37151;SDS011;23046;50.112;8.952;2023-12-04T00:15:14;9.70;;;5.23;;
37151;SDS011;23046;50.112;8.952;2023-12-04T00:15:24;9.07;;;5.15;;
37151;SDS011;23046;50.112;8.952;2023-12-04T00:15:34;9.83;;;5.50;;
37151;SDS011;23046;50.112;8.952;2023-12-04T00:15:45;10.57;;;5.67;;
37151;SDS011;23046;50.112;8.952;2023-12-04T00:15:55;11.07;;;5.63;;
37151;SDS011;23046;50.112;8.952;2023-12-04T00:16:05;11.90;;;5.90;;
37151;SDS011;23046;50.112;8.952;2023-12-04T00:16:16;11.75;;;5.85;;
37151;SDS011;23046;50.112;8.952;2023-12-04T00:16:26;12.17;;;6.03;;
37151;SDS011;23046;50.112;8.952;2023-12-04T00:16:36;11.27;;;5.80;;
37151;SDS011;23046;50.112;8.952;2023-12-04T00:16:46;11.25;;;5.72;;
37151;SDS011;23046;50.112;8.952;2023-12-04T00:16:57;10.70;;;5.67;;
37151;SDS011;23046;50.112;8.952;2023-12-04T00:17:07;11.47;;;5.60;;
37151;SDS011;23046;50.112;8.952;2023-12-04T00:17:17;10.73;;;5.47;;
37151;SDS011;23046;50.112;8.952;2023-12-04T00:17:27;10.40;;;5.37;;
37151;SDS011;23046;50.112;8.952;2023-12-04T00:17:37;9.90;;;5.22;;
37151;SDS011;23046;50.112;8.952;2023-12-04T00:17:49;9.18;;;5.28;;
37151;SDS011;23046;50.112;8.952;2023-12-04T00:17:59;9.23;;;5.30;;
37151;SDS011;23046;50.112;8.952;2023-12-04T00:18:10;9.33;;;5.43;;
37151;SDS011;23046;50.112;8.952;2023-12-04T00:18:20;10.00;;;5.37;;
37151;SDS011;23046;50.112;8.952;2023-12-04T00:18:30;9.33;;;5.23;;
37151;SDS011;23046;50.112;8.952;2023-12-04T00:18:40;9.23;;;5.22;;
37151;SDS011;23046;50.112;8.952;2023-12-04T00:18:50;8.83;;;5.40;;
37151;SDS011;23046;50.112;8.952;2023-12-04T00:19:01;8.93;;;5.40;;
37151;SDS011;23046;50.112;8.952;2023-12-04T00:19:11;8.90;;;5.57;;
37151;SDS011;23046;50.112;8.952;2023-12-04T00:19:21;10.07;;;5.67;;
37151;SDS011;23046;50.112;8.952;2023-12-04T00:19:31;10.47;;;5.60;;
37151;SDS011;23046;50.112;8.952;2023-12-04T00:19:41;10.68;;;5.47;;
37151;SDS011;23046;50.112;8.952;2023-12-04T00:19:52;9.53;;;5.37;;
37151;SDS011;23046;50.112;8.952;2023-12-04T00:20:02;9.27;;;5.40;;
37151;SDS011;23046;50.112;8.952;2023-12-04T00:20:12;8.83;;;5.30;;
37151;SDS011;23046;50.112;8.952;2023-12-04T00:20:22;8.88;;;5.25;;
37151;SDS011;23046;50.112;8.952;2023-12-04T00:20:33;10.93;;;5.70;;
37151;SDS011;23046;50.112;8.952;2023-12-04T00:20:43;12.47;;;5.90;;
37151;SDS011;23046;50.112;8.952;2023-12-04T00:20:53;13.07;;;5.70;;
37151;SDS011;23046;50.112;8.952;2023-12-04T00:21:03;12.57;;;5.63;;
37151;SDS011;23046;50.112;8.952;2023-12-04T00:21:14;11.13;;;5.50;;
37151;SDS011;23046;50.112;8.952;2023-12-04T00:21:24;11.57;;;5.73;;
37151;SDS011;23046;50.112;8.952;2023-12-04T00:21:34;11.17;;;5.60;;
37151;SDS011;23046;50.112;8.952;2023-12-04T00:21:44;11.40;;;5.70;;
37151;SDS011;23046;50.112;8.952;2023-12-04T00:21:54;11.18;;;5.72;;
37151;SDS011;23046;50.112;8.952;2023-12-04T00:22:05;11.23;;;5.67;;
37151;SDS011;23046;50.112;8.952;2023-12-04T00:22:15;11.53;;;5.53;;
37151;SDS011;23046;50.112;8.952;2023-12-04T00:22:25;10.57;;;5.40;;
37151;SDS011;23046;50.112;8.952;2023-12-04T00:22:36;10.37;;;5.60;;
37151;SDS011;23046;50.112;8.952;2023-12-04T00:22:46;11.15;;;5.70;;
37151;SDS011;23046;50.112;8.952;2023-12-04T00:22:56;11.37;;;5.60;;
37151;SDS011;23046;50.112;8.952;2023-12-04T00:23:06;11.87;;;5.60;;
37151;SDS011;23046;50.112;8.952;2023-12-04T00:23:16;12.10;;;5.60;;
37151;SDS011;23046;50.112;8.952;2023-12-04T00:23:26;13.15;;;5.85;;
37151;SDS011;23046;50.112;8.952;2023-12-04T00:23:37;11.23;;;5.40;;
37151;SDS011;23046;50.112;8.952;2023-12-04T00:23:47;10.77;;;5.40;;
37151;SDS011;23046;50.112;8.952;2023-12-04T00:23:57;9.60;;;5.27;;
37151;SDS011;23046;50.112;8.952;2023-12-04T00:24:07;9.30;;;5.27;;
37151;SDS011;23046;50.112;8.952;2023-12-04T00:24:17;9.10;;;5.40;;
37151;SDS011;23046;50.112;8.952;2023-12-04T00:24:28;9.88;;;5.47;;
37151;SDS011;23046;50.112;8.952;2023-12-04T00:24:38;11.87;;;5.73;;
37151;SDS011;23046;50.112;8.952;2023-12-04T00:24:49;11.77;;;5.75;;
37151;SDS011;23046;50.112;8.952;2023-12-04T00:24:59;10.93;;;5.40;;
37151;SDS011;23046;50.112;8.952;2023-12-04T00:25:09;9.43;;;5.17;;
37151;SDS011;23046;50.112;8.952;2023-12-04T00:25:19;9.47;;;5.30;;
37151;SDS011;23046;50.112;8.952;2023-12-04T00:25:29;10.07;;;5.63;;
37151;SDS011;23046;50.112;8.952;2023-12-04T00:25:39;11.47;;;6.00;;
37151;SDS011;23046;50.112;8.952;2023-12-04T00:25:50;12.68;;;5.95;;
37151;SDS011;23046;50.112;8.952;2023-12-04T00:26:00;11.90;;;5.60;;
37151;SDS011;23046;50.112;8.952;2023-12-04T00:26:11;11.57;;;5.40;;
37151;SDS011;23046;50.112;8.952;2023-12-04T00:26:21;9.48;;;5.15;;
37151;SDS011;23046;50.112;8.952;2023-12-04T00:26:32;9.70;;;5.25;;
37151;SDS011;23046;50.112;8.952;2023-12-04T00:26:42;8.17;;;5.13;;
37151;SDS011;23046;50.112;8.952;2023-12-04T00:26:52;9.83;;;5.27;;
37151;SDS011;23046;50.112;8.952;2023-12-04T00:27:02;9.50;;;5.23;;
37151;SDS011;23046;50.112;8.952;2023-12-04T00:27:12;10.67;;;5.53;;
37151;SDS011;23046;50.112;8.952;2023-12-04T00:27:23;9.27;;;5.43;;
37151;SDS011;23046;50.112;8.952;2023-12-04T00:27:36;10.85;;;5.70;;
37151;SDS011;23046;50.112;8.952;2023-12-04T00:27:46;10.50;;;5.30;;
37151;SDS011;23046;50.112;8.952;2023-12-04T00:27:57;10.18;;;5.38;;
37151;SDS011;23046;50.112;8.952;2023-12-04T00:28:07;8.87;;;5.23;;
37151;SDS011;23046;50.112;8.952;2023-12-04T00:28:17;10.77;;;5.57;;
37151;SDS011;23046;50.112;8.952;2023-12-04T00:28:28;10.53;;;5.63;;
37151;SDS011;23046;50.112;8.952;2023-12-04T00:28:38;10.23;;;5.53;;
37151;SDS011;23046;50.112;8.952;2023-12-04T00:28:49;8.83;;;5.20;;
37151;SDS011;23046;50.112;8.952;2023-12-04T00:28:59;9.85;;;5.15;;
37151;SDS011;23046;50.112;8.952;2023-12-04T00:29:09;10.03;;;5.40;;
37151;SDS011;23046;50.112;8.952;2023-12-04T00:29:19;10.77;;;5.57;;
37151;SDS011;23046;50.112;8.952;2023-12-04T00:29:29;10.77;;;5.60;;
37151;SDS011;23046;50.112;8.952;2023-12-04T00:29:40;10.80;;;5.30;;
37151;SDS011;23046;50.112;8.952;2023-12-04T00:29:50;10.15;;;5.25;;
37151;SDS011;23046;50.112;8.952;2023-12-04T00:30:00;9.30;;;5.20;;
37151;SDS011;23046;50.112;8.952;2023-12-04T00:30:10;8.97;;;5.00;;
37151;SDS011;23046;50.112;8.952;2023-12-04T00:30:20;8.40;;;4.77;;
37151;SDS011;23046;50.112;8.952;2023-12-04T00:30:31;8.37;;;4.73;;
37151;SDS011;23046;50.112;8.952;2023-12-04T00:30:41;8.45;;;4.78;;
37151;SDS011;23046;50.112;8.952;2023-12-04T00:30:51;7.90;;;4.70;;
37151;SDS011;23046;50.112;8.952;2023-12-04T00:31:01;8.07;;;4.90;;
37151;SDS011;23046;50.112;8.952;2023-12-04T00:31:12;8.60;;;5.10;;
37151;SDS011;23046;50.112;8.952;2023-12-04T00:31:22;9.30;;;5.20;;
37151;SDS011;23046;50.112;8.952;2023-12-04T00:31:32;8.93;;;5.00;;
37151;SDS011;23046;50.112;8.952;2023-12-04T00:31:42;10.13;;;5.20;;
37151;SDS011;23046;50.112;8.952;2023-12-04T00:31:52;9.73;;;5.17;;
37151;SDS011;23046;50.112;8.952;2023-12-04T00:32:03;10.73;;;5.47;;
37151;SDS011;23046;50.112;8.952;2023-12-04T00:32:13;9.68;;;5.30;;
37151;SDS011;23046;50.112;8.952;2023-12-04T00:32:23;10.93;;;5.70;;
37151;SDS011;23046;50.112;8.952;2023-12-04T00:32:34;11.13;;;5.77;;
37151;SDS011;23046;50.112;8.952;2023-12-04T00:32:44;11.43;;;5.65;;
37151;SDS011;23046;50.112;8.952;2023-12-04T00:32:54;11.13;;;5.30;;
37151;SDS011;23046;50.112;8.952;2023-12-04T00:33:04;10.07;;;5.03;;
37151;SDS011;23046;50.112;8.952;2023-12-04T00:33:14;10.00;;;5.17;;
37151;SDS011;23046;50.112;8.952;2023-12-04T00:33:25;9.67;;;5.33;;
37151;SDS011;23046;50.112;8.952;2023-12-04T00:33:35;10.75;;;5.40;;
37151;SDS011;23046;50.112;8.952;2023-12-04T00:33:45;11.30;;;5.47;;
37151;SDS011;23046;50.112;8.952;2023-12-04T00:33:56;11.57;;;5.63;;
37151;SDS011;23046;50.112;8.952;2023-12-04T00:34:06;9.87;;;5.57;;
37151;SDS011;23046;50.112;8.952;2023-12-04T00:34:16;8.95;;;5.50;;
37151;SDS011;23046;50.112;8.952;2023-12-04T00:34:26;8.57;;;5.23;;
37151;SDS011;23046;50.112;8.952;2023-12-04T00:34:36;9.47;;;5.30;;
37151;SDS011;23046;50.112;8.952;2023-12-04T00:34:46;10.67;;;5.23;;
37151;SDS011;23046;50.112;8.952;2023-12-04T00:34:57;11.07;;;5.50;;
37151;SDS011;23046;50.112;8.952;2023-12-04T00:35:07;12.13;;;5.60;;
37151;SDS011;23046;50.112;8.952;2023-12-04T00:35:17;11.10;;;5.53;;
37151;SDS011;23046;50.112;8.952;2023-12-04T00:35:27;10.60;;;5.37;;
37151;SDS011;23046;50.112;8.952;2023-12-04T00:35:38;9.73;;;5.50;;
37151;SDS011;23046;50.112;8.952;2023-12-04T00:35:48;10.30;;;5.57;;
37151;SDS011;23046;50.112;8.952;2023-12-04T00:35:58;11.53;;;5.70;;
37151;SDS011;23046;50.112;8.952;2023-12-04T00:36:09;11.98;;;5.50;;
37151;SDS011;23046;50.112;8.952;2023-12-04T00:36:19;12.70;;;5.83;;
37151;SDS011;23046;50.112;8.952;2023-12-04T00:36:29;11.60;;;5.65;;
37151;SDS011;23046;50.112;8.952;2023-12-04T00:36:40;12.30;;;5.67;;
37151;SDS011;23046;50.112;8.952;2023-12-04T00:36:50;11.90;;;5.60;;
37151;SDS011;23046;50.112;8.952;2023-12-04T00:37:00;11.43;;;5.80;;
37151;SDS011;23046;50.112;8.952;2023-12-04T00:37:10;10.63;;;5.90;;
37151;SDS011;23046;50.112;8.952;2023-12-04T00:37:20;10.77;;;5.87;;
37151;SDS011;23046;50.112;8.952;2023-12-04T00:37:31;11.67;;;5.60;;
37151;SDS011;23046;50.112;8.952;2023-12-04T00:37:41;11.43;;;5.53;;
37151;SDS011;23046;50.112;8.952;2023-12-04T00:37:51;10.60;;;5.47;;
37151;SDS011;23046;50.112;8.952;2023-12-04T00:38:01;11.02;;;5.72;;
37151;SDS011;23046;50.112;8.952;2023-12-04T00:38:11;10.03;;;5.60;;
37151;SDS011;23046;50.112;8.952;2023-12-04T00:38:21;9.63;;;5.40;;
37151;SDS011;23046;50.112;8.952;2023-12-04T00:38:32;9.07;;;5.07;;
37151;SDS011;23046;50.112;8.952;2023-12-04T00:38:42;10.47;;;5.30;;
37151;SDS011;23046;50.112;8.952;2023-12-04T00:38:53;11.17;;;5.30;;
37151;SDS011;23046;50.112;8.952;2023-12-04T00:39:03;11.20;;;5.47;;
37151;SDS011;23046;50.112;8.952;2023-12-04T00:39:13;11.43;;;5.70;;
37151;SDS011;23046;50.112;8.952;2023-12-04T00:39:24;11.07;;;5.90;;
37151;SDS011;23046;50.112;8.952;2023-12-04T00:39:34;12.03;;;5.87;;
37151;SDS011;23046;50.112;8.952;2023-12-04T00:39:44;12.67;;;5.93;;
37151;SDS011;23046;50.112;8.952;2023-12-04T00:39:54;13.95;;;6.25;;
37151;SDS011;23046;50.112;8.952;2023-12-04T00:40:05;12.83;;;5.97;;
37151;SDS011;23046;50.112;8.952;2023-12-04T00:40:15;11.55;;;5.60;;
37151;SDS011;23046;50.112;8.952;2023-12-04T00:40:25;10.57;;;5.40;;
37151;SDS011;23046;50.112;8.952;2023-12-04T00:40:36;11.10;;;5.83;;
37151;SDS011;23046;50.112;8.952;2023-12-04T00:40:46;10.63;;;5.87;;
37151;SDS011;23046;50.112;8.952;2023-12-04T00:40:56;11.63;;;5.90;;
37151;SDS011;23046;50.112;8.952;2023-12-04T00:41:06;11.50;;;5.55;;
37151;SDS011;23046;50.112;8.952;2023-12-04T00:41:16;13.03;;;5.57;;
37151;SDS011;23046;50.112;8.952;2023-12-04T00:41:27;12.63;;;5.50;;
37151;SDS011;23046;50.112;8.952;2023-12-04T00:41:37;12.63;;;5.67;;
37151;SDS011;23046;50.112;8.952;2023-12-04T00:41:47;10.63;;;5.60;;
37151;SDS011;23046;50.112;8.952;2023-12-04T00:41:57;10.10;;;5.53;;
37151;SDS011;23046;50.112;8.952;2023-12-04T00:42:07;9.52;;;5.40;;
37151;SDS011;23046;50.112;8.952;2023-12-04T00:42:18;9.47;;;5.20;;
37151;SDS011;23046;50.112;8.952;2023-12-04T00:42:28;9.40;;;5.20;;
37151;SDS011;23046;50.112;8.952;2023-12-04T00:42:38;10.63;;;5.13;;
37151;SDS011;23046;50.112;8.952;2023-12-04T00:42:48;10.90;;;5.30;;
37151;SDS011;23046;50.112;8.952;2023-12-04T00:42:58;10.68;;;5.30;;
37151;SDS011;23046;50.112;8.952;2023-12-04T00:43:08;10.77;;;5.60;;
37151;SDS011;23046;50.112;8.952;2023-12-04T00:43:19;11.87;;;5.70;;
37151;SDS011;23046;50.112;8.952;2023-12-04T00:43:29;12.27;;;5.67;;
37151;SDS011;23046;50.112;8.952;2023-12-04T00:43:39;11.23;;;5.63;;
37151;SDS011;23046;50.112;8.952;2023-12-04T00:43:49;10.30;;;5.65;;
37151;SDS011;23046;50.112;8.952;2023-12-04T00:43:59;10.07;;;5.50;;
37151;SDS011;23046;50.112;8.952;2023-12-04T00:44:10;10.93;;;5.67;;
37151;SDS011;23046;50.112;8.952;2023-12-04T00:44:20;10.53;;;5.53;;
37151;SDS011;23046;50.112;8.952;2023-12-04T00:44:30;10.10;;;5.50;;
37151;SDS011;23046;50.112;8.952;2023-12-04T00:44:40;9.23;;;5.00;;
37151;SDS011;23046;50.112;8.952;2023-12-04T00:44:50;10.73;;;4.93;;
37151;SDS011;23046;50.112;8.952;2023-12-04T00:45:01;10.53;;;4.93;;
37151;SDS011;23046;50.112;8.952;2023-12-04T00:45:12;9.85;;;5.18;;
37151;SDS011;23046;50.112;8.952;2023-12-04T00:45:22;9.07;;;5.50;;
37151;SDS011;23046;50.112;8.952;2023-12-04T00:45:32;10.37;;;5.70;;
37151;SDS011;23046;50.112;8.952;2023-12-04T00:45:42;10.50;;;5.87;;
37151;SDS011;23046;50.112;8.952;2023-12-04T00:45:52;10.57;;;5.75;;
37151;SDS011;23046;50.112;8.952;2023-12-04T00:46:03;11.33;;;5.90;;
37151;SDS011;23046;50.112;8.952;2023-12-04T00:46:13;12.87;;;5.80;;
37151;SDS011;23046;50.112;8.952;2023-12-04T00:46:23;11.77;;;5.60;;
37151;SDS011;23046;50.112;8.952;2023-12-04T00:46:33;10.55;;;5.40;;
37151;SDS011;23046;50.112;8.952;2023-12-04T00:46:44;8.77;;;5.23;;
37151;SDS011;23046;50.112;8.952;2023-12-04T00:46:54;9.07;;;5.27;;
37151;SDS011;23046;50.112;8.952;2023-12-04T00:47:04;7.90;;;5.20;;
37151;SDS011;23046;50.112;8.952;2023-12-04T00:47:14;8.33;;;5.33;;
37151;SDS011;23046;50.112;8.952;2023-12-04T00:47:24;9.87;;;5.70;;
37151;SDS011;23046;50.112;8.952;2023-12-04T00:47:35;10.85;;;5.88;;
37151;SDS011;23046;50.112;8.952;2023-12-04T00:47:45;11.63;;;5.87;;
37151;SDS011;23046;50.112;8.952;2023-12-04T00:47:55;11.07;;;5.77;;
37151;SDS011;23046;50.112;8.952;2023-12-04T00:48:05;10.33;;;5.57;;
37151;SDS011;23046;50.112;8.952;2023-12-04T00:48:15;10.05;;;5.43;;
37151;SDS011;23046;50.112;8.952;2023-12-04T00:48:26;10.23;;;5.43;;
37151;SDS011;23046;50.112;8.952;2023-12-04T00:48:36;10.43;;;5.37;;
37151;SDS011;23046;50.112;8.952;2023-12-04T00:48:46;9.97;;;5.50;;
37151;SDS011;23046;50.112;8.952;2023-12-04T00:48:56;9.27;;;5.43;;
37151;SDS011;23046;50.112;8.952;2023-12-04T00:49:06;9.20;;;5.27;;
37151;SDS011;23046;50.112;8.952;2023-12-04T00:49:17;10.63;;;5.55;;
37151;SDS011;23046;50.112;8.952;2023-12-04T00:49:27;11.40;;;5.80;;
37151;SDS011;23046;50.112;8.952;2023-12-04T00:49:37;11.73;;;5.97;;
37151;SDS011;23046;50.112;8.952;2023-12-04T00:49:47;10.60;;;5.53;;
37151;SDS011;23046;50.112;8.952;2023-12-04T00:49:57;11.37;;;5.47;;
37151;SDS011;23046;50.112;8.952;2023-12-04T00:50:08;11.10;;;5.45;;
37151;SDS011;23046;50.112;8.952;2023-12-04T00:50:18;11.03;;;5.30;;
37151;SDS011;23046;50.112;8.952;2023-12-04T00:50:28;10.37;;;5.17;;
37151;SDS011;23046;50.112;8.952;2023-12-04T00:50:38;10.77;;;5.27;;
37151;SDS011;23046;50.112;8.952;2023-12-04T00:50:50;11.52;;;5.65;;
37151;SDS011;23046;50.112;8.952;2023-12-04T00:51:01;11.38;;;5.75;;
37151;SDS011;23046;50.112;8.952;2023-12-04T00:51:11;11.37;;;5.63;;
37151;SDS011;23046;50.112;8.952;2023-12-04T00:51:21;10.27;;;5.40;;
37151;SDS011;23046;50.112;8.952;2023-12-04T00:51:36;9.93;;;5.23;;
37151;SDS011;23046;50.112;8.952;2023-12-04T00:51:47;9.80;;;5.43;;
37151;SDS011;23046;50.112;8.952;2023-12-04T00:51:57;9.53;;;5.27;;
37151;SDS011;23046;50.112;8.952;2023-12-04T00:52:07;9.67;;;5.43;;
37151;SDS011;23046;50.112;8.952;2023-12-04T00:52:17;11.03;;;5.63;;
37151;SDS011;23046;50.112;8.952;2023-12-04T00:52:28;11.47;;;5.77;;
37151;SDS011;23046;50.112;8.952;2023-12-04T00:52:38;10.98;;;5.50;;
37151;SDS011;23046;50.112;8.952;2023-12-04T00:52:48;8.60;;;4.93;;
37151;SDS011;23046;50.112;8.952;2023-12-04T00:52:58;10.17;;;5.03;;
37151;SDS011;23046;50.112;8.952;2023-12-04T00:53:08;11.37;;;5.50;;
37151;SDS011;23046;50.112;8.952;2023-12-04T00:53:19;12.20;;;5.83;;
37151;SDS011;23046;50.112;8.952;2023-12-04T00:53:29;10.48;;;5.68;;
37151;SDS011;23046;50.112;8.952;2023-12-04T00:53:39;10.20;;;5.40;;
37151;SDS011;23046;50.112;8.952;2023-12-04T00:53:49;9.57;;;5.37;;
37151;SDS011;23046;50.112;8.952;2023-12-04T00:53:59;9.60;;;5.20;;
37151;SDS011;23046;50.112;8.952;2023-12-04T00:54:10;9.43;;;5.50;;
37151;SDS011;23046;50.112;8.952;2023-12-04T00:54:20;10.35;;;5.50;;
37151;SDS011;23046;50.112;8.952;2023-12-04T00:54:30;10.37;;;5.53;;
37151;SDS011;23046;50.112;8.952;2023-12-04T00:54:40;10.43;;;5.37;;
37151;SDS011;23046;50.112;8.952;2023-12-04T00:54:51;10.95;;;5.45;;
37151;SDS011;23046;50.112;8.952;2023-12-04T00:55:01;12.53;;;5.73;;
37151;SDS011;23046;50.112;8.952;2023-12-04T00:55:11;12.23;;;5.80;;
37151;SDS011;23046;50.112;8.952;2023-12-04T00:55:21;11.60;;;5.83;;
37151;SDS011;23046;50.112;8.952;2023-12-04T00:55:31;10.10;;;5.50;;
37151;SDS011;23046;50.112;8.952;2023-12-04T00:55:42;9.80;;;5.50;;
37151;SDS011;23046;50.112;8.952;2023-12-04T00:55:52;10.50;;;5.50;;
37151;SDS011;23046;50.112;8.952;2023-12-04T00:56:02;10.73;;;5.60;;
37151;SDS011;23046;50.112;8.952;2023-12-04T00:56:13;10.37;;;5.40;;
37151;SDS011;23046;50.112;8.952;2023-12-04T00:56:23;8.95;;;4.95;;
37151;SDS011;23046;50.112;8.952;2023-12-04T00:56:33;8.77;;;4.67;;
37151;SDS011;23046;50.112;8.952;2023-12-04T00:56:43;8.93;;;4.67;;
37151;SDS011;23046;50.112;8.952;2023-12-04T00:56:53;10.30;;;5.23;;
37151;SDS011;23046;50.112;8.952;2023-12-04T00:57:03;11.40;;;5.70;;
37151;SDS011;23046;50.112;8.952;2023-12-04T00:57:14;11.50;;;5.77;;
37151;SDS011;23046;50.112;8.952;2023-12-04T00:57:24;11.75;;;5.57;;
37151;SDS011;23046;50.112;8.952;2023-12-04T00:57:34;11.20;;;5.30;;
37151;SDS011;23046;50.112;8.952;2023-12-04T00:57:44;11.17;;;5.47;;
37151;SDS011;23046;50.112;8.952;2023-12-04T00:57:54;9.83;;;5.33;;
37151;SDS011;23046;50.112;8.952;2023-12-04T00:58:05;9.80;;;5.47;;
37151;SDS011;23046;50.112;8.952;2023-12-04T00:58:15;9.77;;;5.40;;
37151;SDS011;23046;50.112;8.952;2023-12-04T00:58:25;10.77;;;5.40;;
37151;SDS011;23046;50.112;8.952;2023-12-04T00:58:35;10.70;;;5.50;;
37151;SDS011;23046;50.112;8.952;2023-12-04T00:58:46;11.03;;;5.43;;
37151;SDS011;23046;50.112;8.952;2023-12-04T00:58:56;10.50;;;5.50;;
37151;SDS011;23046;50.112;8.952;2023-12-04T00:59:10;9.73;;;5.30;;
37151;SDS011;23046;50.112;8.952;2023-12-04T00:59:21;9.23;;;5.32;;
37151;SDS011;23046;50.112;8.952;2023-12-04T00:59:31;9.97;;;5.57;;
37151;SDS011;23046;50.112;8.952;2023-12-04T00:59:41;10.40;;;5.80;;
37151;SDS011;23046;50.112;8.952;2023-12-04T00:59:51;12.67;;;6.23;;
37151;SDS011;23046;50.112;8.952;2023-12-04T01:00:01;11.87;;;6.00;;
37151;SDS011;23046;50.112;8.952;2023-12-04T01:00:13;11.82;;;5.70;;
37151;SDS011;23046;50.112;8.952;2023-12-04T01:00:23;10.25;;;5.43;;
37151;SDS011;23046;50.112;8.952;2023-12-04T01:00:33;10.03;;;5.50;;
37151;SDS011;23046;50.112;8.952;2023-12-04T01:00:43;10.03;;;5.60;;
37151;SDS011;23046;50.112;8.952;2023-12-04T01:00:53;9.40;;;5.40;;
37151;SDS011;23046;50.112;8.952;2023-12-04T01:01:04;9.53;;;5.47;;
37151;SDS011;23046;50.112;8.952;2023-12-04T01:01:14;8.80;;;5.18;;
37151;SDS011;23046;50.112;8.952;2023-12-04T01:01:24;9.03;;;5.23;;